Time;durP1;ratioP1;P1;durP2;ratioP2;P2;SDS_P1;SDS_P2;PMS_P1;PMS_P2;Temp;Humidity;BMP_temperature;BMP_pressure;BME280_temperature;BME280_humidity;BME280_pressure;Samples;Min_cycle;Max_cycle;Signal;HPM_P1;HPM_P2
2021/12/07 00:01:54;;;;;;;151.65;91.07;;;8.40;99.90;;;;;;5035674;28;20391;-79
2021/12/07 00:04:20;;;;;;;125.22;74.25;;;8.40;99.90;;;;;;5053565;28;20447;-79
2021/12/07 00:06:47;;;;;;;92.00;57.85;;;8.40;99.90;;;;;;5053491;28;20110;-79
2021/12/07 00:09:16;;;;;;;69.78;42.53;;;8.40;99.90;;;;;;5053452;28;20059;-79
2021/12/07 00:11:44;;;;;;;53.17;30.70;;;8.40;99.90;;;;;;5035643;28;20068;-79
2021/12/07 00:14:15;;;;;;;41.95;24.58;;;8.40;99.90;;;;;;5038725;28;20067;-78
2021/12/07 00:16:43;;;;;;;33.92;19.40;;;8.50;99.90;;;;;;5057095;28;20029;-78
2021/12/07 00:19:10;;;;;;;32.92;18.10;;;8.50;99.90;;;;;;5057493;28;20032;-78
2021/12/07 00:21:37;;;;;;;32.20;17.30;;;8.50;99.90;;;;;;5057079;28;20025;-78
2021/12/07 00:24:03;;;;;;;27.63;15.60;;;8.50;99.90;;;;;;5038949;28;20037;-78
2021/12/07 00:26:28;;;;;;;32.25;16.02;;;8.50;99.90;;;;;;5057001;28;20032;-79
2021/12/07 00:28:56;;;;;;;27.50;14.82;;;8.50;99.90;;;;;;5056812;28;20033;-79
2021/12/07 00:31:38;;;;;;;27.10;14.27;;;8.50;99.90;;;;;;5038785;28;20029;-79
2021/12/07 00:34:14;;;;;;;27.25;14.80;;;8.60;99.90;;;;;;5038873;28;20152;-79
2021/12/07 00:36:45;;;;;;;27.63;14.95;;;8.50;99.90;;;;;;5056653;28;20036;-79
2021/12/07 00:39:15;;;;;;;28.30;15.52;;;8.60;99.90;;;;;;5039076;28;20509;-79
2021/12/07 00:41:41;;;;;;;28.40;16.08;;;8.60;99.90;;;;;;5038320;28;20037;-79
2021/12/07 00:44:07;;;;;;;30.90;16.77;;;8.60;99.90;;;;;;5038758;28;20033;-78
2021/12/07 00:46:34;;;;;;;27.77;15.40;;;8.60;99.90;;;;;;5056328;28;20079;-79
2021/12/07 00:49:01;;;;;;;26.58;14.57;;;8.60;99.90;;;;;;5038475;28;20045;-79
2021/12/07 00:51:26;;;;;;;29.10;14.68;;;8.70;99.90;;;;;;5038241;28;20037;-79
2021/12/07 00:53:52;;;;;;;29.70;15.43;;;8.70;99.90;;;;;;5056342;28;20033;-79
2021/12/07 00:56:18;;;;;;;26.02;14.65;;;8.70;99.90;;;;;;5056792;28;20032;-79
2021/12/07 00:58:44;;;;;;;24.35;13.90;;;8.70;99.90;;;;;;5056451;28;20485;-78
2021/12/07 01:01:13;;;;;;;26.98;14.65;;;8.70;99.90;;;;;;5038539;28;20033;-78
2021/12/07 01:03:39;;;;;;;27.13;14.77;;;8.70;99.90;;;;;;5038419;28;20040;-79
2021/12/07 01:25:06;;;;;;;24.40;13.70;;;8.90;99.90;;;;;;5055928;28;20541;-79
2021/12/07 01:27:32;;;;;;;25.50;14.75;;;8.90;99.90;;;;;;5038741;28;20025;-78
2021/12/07 01:30:16;;;;;;;22.98;13.77;;;8.90;99.90;;;;;;5038077;28;20044;-79
2021/12/07 02:01:51;;;;;;;21.20;12.60;;;8.90;99.90;;;;;;5055931;28;20494;-78
2021/12/07 02:04:17;;;;;;;20.13;12.13;;;8.90;99.90;;;;;;5037279;28;20056;-78
2021/12/07 02:06:43;;;;;;;20.52;11.98;;;8.90;99.90;;;;;;5037241;28;20097;-78
2021/12/07 02:09:11;;;;;;;17.85;10.65;;;8.90;99.90;;;;;;5036913;28;20036;-78
2021/12/07 02:11:44;;;;;;;18.33;10.40;;;8.90;99.90;;;;;;5054973;28;20076;-79
2021/12/07 02:14:19;;;;;;;16.20;9.23;;;9.00;99.90;;;;;;5055136;28;20037;-78
2021/12/07 02:16:49;;;;;;;14.70;8.80;;;8.90;99.90;;;;;;5037582;28;20044;-78
2021/12/07 02:19:16;;;;;;;18.55;11.10;;;8.90;99.90;;;;;;5055117;28;20060;-78
2021/12/07 02:21:42;;;;;;;17.73;10.73;;;9.00;99.90;;;;;;5036742;28;20124;-78
2021/12/07 02:24:08;;;;;;;19.10;11.13;;;9.00;99.90;;;;;;5054661;28;20049;-78
2021/12/07 02:26:34;;;;;;;15.05;10.18;;;9.00;99.90;;;;;;5037440;28;20041;-78
2021/12/07 02:29:00;;;;;;;16.73;10.20;;;9.00;99.90;;;;;;5054468;28;20033;-78
2021/12/07 02:31:26;;;;;;;15.20;9.88;;;9.00;99.90;;;;;;5036437;28;20055;-78
2021/12/07 02:33:53;;;;;;;23.25;12.40;;;8.90;99.90;;;;;;5036397;28;20065;-78
2021/12/07 02:36:19;;;;;;;20.20;11.48;;;9.00;99.90;;;;;;5035739;28;20037;-78
2021/12/07 02:38:45;;;;;;;16.67;9.88;;;9.00;99.90;;;;;;5036851;28;20033;-78
2021/12/07 02:41:10;;;;;;;17.58;10.57;;;9.00;99.90;;;;;;5036370;28;20029;-78
2021/12/07 02:43:36;;;;;;;14.98;8.98;;;9.00;99.90;;;;;;5036571;28;20459;-77
2021/12/07 02:46:02;;;;;;;16.73;10.02;;;9.00;99.90;;;;;;5053830;28;20440;-78
2021/12/07 02:48:28;;;;;;;15.68;9.27;;;9.00;99.90;;;;;;5035903;28;20073;-78
2021/12/07 02:50:54;;;;;;;16.90;9.63;;;9.00;99.90;;;;;;5053885;28;20036;-78
2021/12/07 02:53:25;;;;;;;17.77;10.55;;;9.00;99.90;;;;;;5053980;28;20486;-79
2021/12/07 02:55:51;;;;;;;17.50;10.07;;;9.00;99.90;;;;;;5036719;28;20364;-78
2021/12/07 02:58:18;;;;;;;16.23;9.38;;;9.00;99.90;;;;;;5053879;28;20048;-78
2021/12/07 03:00:52;;;;;;;16.92;9.88;;;9.00;99.90;;;;;;5054278;28;20477;-80
2021/12/07 03:03:18;;;;;;;16.25;9.18;;;9.00;99.90;;;;;;5036195;28;20196;-78
2021/12/07 03:05:51;;;;;;;15.10;9.43;;;9.00;99.90;;;;;;5036116;28;20068;-80
2021/12/07 03:28:04;;;;;;;19.52;10.32;;;8.90;99.90;;;;;;5053657;28;20048;-76
2021/12/07 03:30:30;;;;;;;23.38;11.98;;;8.90;99.90;;;;;;5053575;28;20033;-80
2021/12/07 03:32:56;;;;;;;19.73;10.55;;;8.90;99.90;;;;;;5053770;28;20041;-79
2021/12/07 03:35:21;;;;;;;24.60;11.32;;;8.90;99.90;;;;;;5053544;28;20082;-78
2021/12/07 03:37:47;;;;;;;21.13;11.50;;;8.90;99.90;;;;;;5035302;28;20463;-79
2021/12/07 03:40:14;;;;;;;19.33;10.70;;;8.90;99.90;;;;;;5035646;28;20069;-79
2021/12/07 03:42:40;;;;;;;24.67;12.30;;;8.90;99.90;;;;;;5053297;28;20076;-80
2021/12/07 03:45:08;;;;;;;22.52;12.65;;;8.90;99.90;;;;;;5053914;28;20112;-78
2021/12/07 03:47:33;;;;;;;21.67;11.98;;;9.00;99.90;;;;;;5036146;28;20033;-78
2021/12/07 03:49:59;;;;;;;22.30;11.40;;;8.90;99.90;;;;;;5039428;28;20040;-78
2021/12/07 03:52:25;;;;;;;19.50;11.10;;;8.90;99.90;;;;;;5057003;28;20072;-78
2021/12/07 03:54:51;;;;;;;18.48;11.18;;;8.90;99.90;;;;;;5057656;28;20041;-78
2021/12/07 03:57:16;;;;;;;16.58;10.45;;;8.90;99.90;;;;;;5039224;28;20457;-79
2021/12/07 03:59:42;;;;;;;21.95;11.25;;;8.90;99.90;;;;;;5057700;28;20036;-78
2021/12/07 04:02:08;;;;;;;22.75;11.95;;;8.90;99.90;;;;;;5056940;28;20380;-80
2021/12/07 04:04:35;;;;;;;21.10;12.25;;;8.90;99.90;;;;;;5039318;28;20044;-78
2021/12/07 04:07:01;;;;;;;27.92;15.45;;;8.90;99.90;;;;;;5057000;28;20036;-78
2021/12/07 04:09:27;;;;;;;32.15;17.75;;;8.90;99.90;;;;;;5039000;28;20430;-78
2021/12/07 04:11:54;;;;;;;29.63;17.40;;;8.90;99.90;;;;;;5038988;28;20040;-79
2021/12/07 04:14:20;;;;;;;28.98;16.42;;;9.00;99.90;;;;;;5039871;28;20048;-79
2021/12/07 04:16:46;;;;;;;30.42;17.45;;;9.00;99.90;;;;;;5039035;28;20116;-79
2021/12/07 04:19:11;;;;;;;35.47;19.48;;;9.00;99.90;;;;;;5038883;28;20108;-78
2021/12/07 04:21:37;;;;;;;34.03;17.67;;;9.00;99.90;;;;;;5056257;28;20029;-78
2021/12/07 04:24:03;;;;;;;38.75;18.13;;;8.90;99.90;;;;;;5056543;28;20083;-78
2021/12/07 04:26:31;;;;;;;40.80;20.55;;;8.90;99.90;;;;;;5056720;28;20065;-78
2021/12/07 04:28:57;;;;;;;40.17;18.77;;;8.90;99.90;;;;;;5057111;28;20025;-78
2021/12/07 04:31:22;;;;;;;39.00;18.85;;;9.00;99.90;;;;;;5056694;28;20514;-79
2021/12/07 04:33:48;;;;;;;50.30;16.95;;;8.90;99.90;;;;;;5038236;28;20136;-79
2021/12/07 04:36:14;;;;;;;35.80;16.20;;;8.90;99.90;;;;;;5056961;28;20459;-79
2021/12/07 04:38:40;;;;;;;30.40;15.73;;;8.90;99.90;;;;;;5056888;28;20033;-79
2021/12/07 04:41:07;;;;;;;39.17;16.02;;;8.90;99.90;;;;;;5038645;28;20033;-79
2021/12/07 04:43:35;;;;;;;30.95;14.55;;;8.90;99.90;;;;;;5056647;28;20102;-79
2021/12/07 04:46:24;;;;;;;42.83;15.10;;;8.90;99.90;;;;;;5038471;28;20475;-79
2021/12/07 04:59:30;;;;;;;43.50;14.93;;;9.00;99.90;;;;;;5055054;28;20090;-80
2021/12/07 05:01:56;;;;;;;24.00;12.57;;;8.90;99.90;;;;;;5037898;28;20036;-77
2021/12/07 05:04:26;;;;;;;26.17;13.75;;;9.00;99.90;;;;;;5037832;28;20033;-78
2021/12/07 05:06:57;;;;;;;32.90;14.03;;;9.00;99.90;;;;;;5055695;28;20021;-78
2021/12/07 05:14:29;;;;;;;36.25;18.60;;;9.00;99.90;;;;;;5056837;28;20041;-80
2021/12/07 05:38:26;;;;;;;39.53;19.90;;;9.00;99.90;;;;;;5055084;28;20080;-79
2021/12/07 05:40:52;;;;;;;39.25;18.02;;;9.00;99.90;;;;;;5054969;28;20037;-79
2021/12/07 05:43:18;;;;;;;38.22;19.55;;;9.00;99.90;;;;;;5036692;28;20037;-81
2021/12/07 05:45:44;;;;;;;32.88;16.73;;;9.00;99.90;;;;;;5028163;28;20041;-78
2021/12/07 05:48:10;;;;;;;31.92;16.45;;;9.00;99.90;;;;;;5038037;28;20086;-78
2021/12/07 05:50:38;;;;;;;32.10;16.67;;;9.10;99.90;;;;;;5037666;28;20033;-83
2021/12/07 05:53:06;;;;;;;30.13;16.17;;;9.10;99.90;;;;;;5035113;28;20045;-79
2021/12/07 05:55:32;;;;;;;31.10;17.08;;;9.10;99.90;;;;;;5053496;28;20040;-81
2021/12/07 05:57:58;;;;;;;33.47;19.75;;;9.10;99.90;;;;;;5053782;28;20844;-81
2021/12/07 06:00:27;;;;;;;33.17;19.85;;;9.20;99.90;;;;;;5044309;28;20032;-80
2021/12/07 06:02:55;;;;;;;42.08;24.38;;;9.20;99.90;;;;;;5048328;28;20076;-80
2021/12/07 06:05:22;;;;;;;38.45;23.15;;;9.20;99.90;;;;;;5040772;28;20032;-79
2021/12/07 06:07:48;;;;;;;36.60;23.75;;;9.20;99.90;;;;;;5040785;28;20097;-78
2021/12/07 06:10:14;;;;;;;39.88;25.30;;;9.20;99.90;;;;;;5072763;28;20033;-80
2021/12/07 06:12:40;;;;;;;40.15;26.25;;;9.30;99.90;;;;;;5072781;28;20530;-80
2021/12/07 06:15:07;;;;;;;34.60;23.05;;;9.30;99.90;;;;;;5056372;28;20044;-78
2021/12/07 06:17:33;;;;;;;32.50;21.30;;;9.30;99.90;;;;;;5075879;28;20117;-80
2021/12/07 06:20:08;;;;;;;28.92;19.17;;;9.30;99.90;;;;;;5076218;28;20455;-82
2021/12/07 06:22:34;;;;;;;38.45;24.13;;;9.30;99.90;;;;;;5057082;28;20049;-82
2021/12/07 06:25:00;;;;;;;37.60;23.85;;;9.40;99.90;;;;;;5056264;28;20032;-84
2021/12/07 06:27:26;;;;;;;38.15;23.45;;;9.30;99.90;;;;;;5056315;28;20067;-83
2021/12/07 06:29:51;;;;;;;47.42;28.63;;;9.40;99.90;;;;;;5074330;28;20036;-92
2021/12/07 06:32:17;;;;;;;50.30;27.30;;;9.30;99.90;;;;;;5074950;28;20035;-88
2021/12/07 06:34:43;;;;;;;40.83;24.25;;;9.40;99.90;;;;;;5056057;28;20058;-79
2021/12/07 06:37:09;;;;;;;27.90;18.83;;;9.40;99.90;;;;;;5056357;28;20033;-79
2021/12/07 06:39:35;;;;;;;22.70;15.32;;;9.40;99.90;;;;;;5055940;28;20032;-79
2021/12/07 06:42:02;;;;;;;16.70;12.00;;;9.40;99.90;;;;;;5055591;28;20035;-78
2021/12/07 06:44:27;;;;;;;19.35;12.65;;;9.40;99.90;;;;;;5074140;28;20037;-78
2021/12/07 06:46:53;;;;;;;27.58;18.23;;;9.50;99.90;;;;;;5047515;28;20052;-78
2021/12/07 06:49:20;;;;;;;35.05;20.63;;;9.50;99.90;;;;;;5046152;28;20043;-78
2021/12/07 06:51:47;;;;;;;28.48;17.10;;;9.50;99.90;;;;;;5056912;28;20417;-79
2021/12/07 06:54:13;;;;;;;19.75;13.20;;;9.50;99.90;;;;;;5055757;28;20040;-79
2021/12/07 06:56:38;;;;;;;33.20;19.17;;;9.50;99.90;;;;;;5070742;28;20045;-79
2021/12/07 06:59:04;;;;;;;31.80;21.08;;;9.50;99.90;;;;;;5035442;28;20384;-79
2021/12/07 07:01:30;;;;;;;32.95;22.80;;;9.50;99.90;;;;;;5036011;28;20467;-79
2021/12/07 07:03:56;;;;;;;28.13;18.80;;;9.50;99.90;;;;;;5035923;28;20033;-80
2021/12/07 07:06:22;;;;;;;24.63;15.75;;;9.50;99.90;;;;;;5053701;28;20106;-81
2021/12/07 07:08:50;;;;;;;21.20;14.48;;;9.50;99.90;;;;;;5035298;28;20491;-83
2021/12/07 07:11:17;;;;;;;22.38;13.20;;;9.60;99.90;;;;;;5037491;28;20186;-82
2021/12/07 07:13:43;;;;;;;19.90;13.32;;;9.60;99.90;;;;;;5026882;28;20049;-82
2021/12/07 07:16:08;;;;;;;18.20;12.48;;;9.60;99.90;;;;;;5058170;28;20021;-84
2021/12/07 07:18:34;;;;;;;25.75;17.23;;;9.60;99.90;;;;;;5061770;28;20036;-83
2021/12/07 07:21:01;;;;;;;30.52;18.63;;;9.70;99.90;;;;;;5054317;28;20060;-83
2021/12/07 07:23:29;;;;;;;37.67;21.65;;;9.70;99.90;;;;;;5048579;28;20467;-84
2021/12/07 07:25:55;;;;;;;32.40;20.23;;;9.80;99.90;;;;;;5057702;28;20040;-80
2021/12/07 07:28:25;;;;;;;46.70;27.13;;;9.80;99.90;;;;;;5057683;28;20451;-84
2021/12/07 07:30:51;;;;;;;54.22;27.95;;;9.80;99.90;;;;;;5054925;28;20489;-83
2021/12/07 07:33:16;;;;;;;59.28;29.55;;;9.80;99.90;;;;;;5059289;28;20044;-85
2021/12/07 07:35:42;;;;;;;51.33;28.92;;;9.90;99.90;;;;;;5078308;28;20059;-84
2021/12/07 07:38:08;;;;;;;37.97;24.08;;;9.90;99.90;;;;;;5060498;28;20370;-84
2021/12/07 07:40:34;;;;;;;42.95;23.90;;;9.90;99.90;;;;;;5058465;28;20581;-79
2021/12/07 07:42:59;;;;;;;35.92;20.20;;;9.90;99.90;;;;;;5067334;28;20544;-82
2021/12/07 07:45:25;;;;;;;30.83;19.35;;;10.00;99.90;;;;;;5067802;28;20028;-80
2021/12/07 07:47:51;;;;;;;37.63;21.50;;;10.00;99.90;;;;;;5059146;28;20450;-79
2021/12/07 07:50:17;;;;;;;29.80;17.95;;;10.00;99.90;;;;;;5053920;28;20403;-80
2021/12/07 07:52:43;;;;;;;26.23;16.10;;;10.00;99.90;;;;;;5046063;28;20140;-81
2021/12/07 07:55:10;;;;;;;30.17;17.35;;;10.10;99.90;;;;;;5057271;28;20026;-79
2021/12/07 07:57:37;;;;;;;51.22;29.05;;;10.10;99.90;;;;;;5036471;28;20136;-79
2021/12/07 08:00:06;;;;;;;46.47;27.00;;;10.10;99.90;;;;;;5046978;28;20036;-82
2021/12/07 08:02:32;;;;;;;42.85;22.50;;;10.10;99.90;;;;;;5056955;28;20040;-78
2021/12/07 08:04:58;;;;;;;32.65;17.73;;;10.20;99.90;;;;;;5056697;28;20100;-79
2021/12/07 08:07:23;;;;;;;22.90;14.40;;;10.20;99.90;;;;;;5065778;28;20426;-79
2021/12/07 08:09:49;;;;;;;24.00;13.88;;;10.20;99.90;;;;;;5058031;28;20037;-79
2021/12/07 08:12:15;;;;;;;29.30;14.90;;;10.20;99.90;;;;;;5071114;28;20045;-78
2021/12/07 08:14:40;;;;;;;22.48;15.02;;;10.20;99.90;;;;;;5059209;28;20030;-81
2021/12/07 08:17:06;;;;;;;24.98;14.50;;;10.30;99.90;;;;;;5061268;28;20024;-79
2021/12/07 08:19:33;;;;;;;25.42;13.77;;;10.30;99.90;;;;;;5047583;28;20040;-78
2021/12/07 08:21:59;;;;;;;24.52;17.40;;;10.30;99.90;;;;;;5052590;28;20028;-79
2021/12/07 08:24:24;;;;;;;30.17;19.13;;;10.30;99.90;;;;;;5053349;28;20029;-79
2021/12/07 08:26:50;;;;;;;28.77;19.63;;;10.30;99.90;;;;;;5055733;28;20032;-78
2021/12/07 08:29:16;;;;;;;29.73;18.33;;;10.30;99.90;;;;;;5043896;28;20451;-81
2021/12/07 08:31:43;;;;;;;25.80;18.15;;;10.30;99.90;;;;;;5052573;28;20029;-86
2021/12/07 08:34:09;;;;;;;28.02;18.35;;;10.30;99.90;;;;;;5074963;28;20032;-83
2021/12/07 08:36:35;;;;;;;29.23;17.40;;;10.30;99.90;;;;;;5076417;28;20040;-82
2021/12/07 08:39:02;;;;;;;28.67;17.92;;;10.30;99.90;;;;;;5053365;28;20079;-81
2021/12/07 08:41:27;;;;;;;38.97;22.42;;;10.40;99.90;;;;;;5040045;28;20067;-81
2021/12/07 08:43:53;;;;;;;54.50;31.30;;;10.40;99.90;;;;;;5056480;28;20037;-80
2021/12/07 08:46:19;;;;;;;56.08;32.75;;;10.40;99.90;;;;;;5056589;28;20041;-80
2021/12/07 08:48:45;;;;;;;50.50;30.33;;;10.40;99.90;;;;;;5056361;28;20459;-80
2021/12/07 08:51:12;;;;;;;59.60;29.60;;;10.40;99.90;;;;;;5071390;28;20029;-80
2021/12/07 08:53:46;;;;;;;51.97;28.83;;;10.30;99.90;;;;;;5038228;28;20048;-80
2021/12/07 09:01:41;;;;;;;31.40;17.67;;;10.20;99.90;;;;;;5053044;28;20495;-80
2021/12/07 09:04:07;;;;;;;30.80;19.00;;;10.20;99.90;;;;;;5045172;28;20072;-82
2021/12/07 09:06:33;;;;;;;36.63;23.05;;;10.20;99.90;;;;;;5053193;28;20063;-80
2021/12/07 09:08:59;;;;;;;44.10;28.95;;;10.20;99.90;;;;;;5075798;28;20120;-79
2021/12/07 09:11:25;;;;;;;46.58;30.33;;;10.20;99.90;;;;;;5076347;28;20497;-81
2021/12/07 09:13:51;;;;;;;46.00;27.77;;;10.20;99.90;;;;;;5075532;28;20040;-78
2021/12/07 09:16:19;;;;;;;38.08;22.17;;;10.20;99.90;;;;;;5057521;28;20158;-85
2021/12/07 09:18:46;;;;;;;41.60;23.27;;;10.20;99.90;;;;;;5060044;28;20105;-80
2021/12/07 09:21:11;;;;;;;41.13;25.90;;;10.20;99.90;;;;;;5037423;28;20124;-84
2021/12/07 09:23:37;;;;;;;48.60;30.95;;;10.20;99.90;;;;;;5043413;28;20544;-82
2021/12/07 09:26:04;;;;;;;45.97;28.77;;;10.20;99.90;;;;;;5062146;28;20501;-83
2021/12/07 09:28:30;;;;;;;54.70;32.70;;;10.20;99.90;;;;;;5055666;28;20094;-80
2021/12/07 09:30:57;;;;;;;55.90;33.20;;;10.20;99.90;;;;;;5057386;28;20040;-80
2021/12/07 09:33:26;;;;;;;58.40;32.50;;;10.20;99.90;;;;;;5075570;28;20072;-80
2021/12/07 09:35:54;;;;;;;57.10;30.65;;;10.30;99.90;;;;;;5057467;28;20040;-80
2021/12/07 09:38:21;;;;;;;51.42;28.45;;;10.30;99.90;;;;;;5057597;28;20106;-81
2021/12/07 09:40:48;;;;;;;63.80;33.05;;;10.30;99.90;;;;;;5083938;28;20032;-82
2021/12/07 09:43:14;;;;;;;63.60;33.50;;;10.30;99.90;;;;;;5059559;28;20063;-82
2021/12/07 09:45:41;;;;;;;59.88;32.25;;;10.30;99.90;;;;;;5073266;28;20059;-82
2021/12/07 09:48:09;;;;;;;60.78;33.78;;;10.30;99.90;;;;;;5055529;28;20037;-81
2021/12/07 09:50:38;;;;;;;54.63;30.08;;;10.40;99.90;;;;;;5055429;28;20123;-83
2021/12/07 09:53:07;;;;;;;49.85;27.60;;;10.30;99.90;;;;;;5055048;28;20037;-83
2021/12/07 09:55:34;;;;;;;53.97;28.95;;;10.30;99.90;;;;;;5055358;28;20068;-81
2021/12/07 09:58:00;;;;;;;48.03;25.10;;;10.30;99.90;;;;;;5074472;28;20127;-80
2021/12/07 10:00:26;;;;;;;58.90;29.60;;;10.30;99.90;;;;;;5056773;28;20131;-81
2021/12/07 10:02:53;;;;;;;58.67;27.17;;;10.30;99.90;;;;;;5074430;28;20463;-81
2021/12/07 10:05:19;;;;;;;57.00;27.27;;;10.40;99.90;;;;;;5074891;28;20124;-80
2021/12/07 10:07:47;;;;;;;63.45;29.63;;;10.40;99.90;;;;;;5074708;28;20072;-80
2021/12/07 10:10:45;;;;;;;60.80;30.08;;;10.40;99.90;;;;;;5056521;28;20423;-80
2021/12/07 10:13:11;;;;;;;67.55;33.53;;;10.40;99.90;;;;;;5055392;28;20045;-80
2021/12/07 10:15:39;;;;;;;62.10;30.42;;;10.40;99.90;;;;;;5074406;28;20115;-80
2021/12/07 10:18:20;;;;;;;75.72;34.70;;;10.50;99.90;;;;;;5056442;28;20119;-79
2021/12/07 10:20:46;;;;;;;65.85;31.10;;;10.50;99.90;;;;;;5074239;28;20028;-79
2021/12/07 10:23:17;;;;;;;65.50;31.02;;;10.50;99.90;;;;;;5055902;28;20048;-79
2021/12/07 10:25:52;;;;;;;58.28;28.60;;;10.60;99.90;;;;;;5074369;28;20401;-80
2021/12/07 10:28:31;;;;;;;62.22;30.63;;;10.70;99.90;;;;;;5074532;28;20077;-81
2021/12/07 10:31:25;;;;;;;62.08;30.20;;;10.70;99.90;;;;;;5074319;28;20028;-80
2021/12/07 10:34:01;;;;;;;59.78;31.02;;;10.80;99.90;;;;;;5074651;28;20044;-79
2021/12/07 10:36:34;;;;;;;76.90;35.72;;;10.80;99.90;;;;;;5055897;28;20089;-80
2021/12/07 10:39:07;;;;;;;71.70;32.03;;;10.80;99.90;;;;;;5055866;28;20487;-79
2021/12/07 10:41:36;;;;;;;58.38;30.83;;;10.80;99.90;;;;;;5056335;28;20056;-79
2021/12/07 10:44:10;;;;;;;54.70;28.85;;;10.80;99.90;;;;;;5055481;28;20032;-80
2021/12/07 10:46:38;;;;;;;52.67;26.13;;;10.80;99.90;;;;;;5055548;28;20482;-80
2021/12/07 10:49:30;;;;;;;45.55;26.40;;;10.80;99.90;;;;;;5073787;28;20029;-80
2021/12/07 10:52:15;;;;;;;44.25;25.27;;;10.90;99.90;;;;;;5052053;28;20040;-80
2021/12/07 10:54:52;;;;;;;40.65;25.48;;;10.80;99.90;;;;;;5074489;28;20037;-80
2021/12/07 10:57:28;;;;;;;39.72;23.45;;;10.90;99.90;;;;;;5072545;28;20052;-80
2021/12/07 11:00:16;;;;;;;57.10;30.25;;;10.90;99.90;;;;;;5055432;28;20032;-80
2021/12/07 11:02:48;;;;;;;55.78;30.42;;;10.90;99.90;;;;;;5073482;28;20036;-80
2021/12/07 11:05:19;;;;;;;56.10;30.25;;;10.90;99.90;;;;;;5073456;28;20021;-81
2021/12/07 11:07:45;;;;;;;55.00;28.88;;;10.90;99.90;;;;;;5073753;28;20037;-80
2021/12/07 11:10:20;;;;;;;47.38;27.08;;;10.90;99.90;;;;;;5073658;28;20028;-80
2021/12/07 11:15:25;;;;;;;48.35;28.00;;;10.90;99.90;;;;;;5073382;28;20044;-80
2021/12/07 11:17:55;;;;;;;44.38;25.55;;;10.90;99.90;;;;;;5073479;28;20044;-81
2021/12/07 11:20:21;;;;;;;42.28;23.25;;;10.90;99.90;;;;;;5055426;28;20033;-80
2021/12/07 11:22:54;;;;;;;41.83;23.20;;;10.90;99.90;;;;;;5073323;28;20462;-79
2021/12/07 11:29:39;;;;;;;40.67;22.35;;;10.90;99.90;;;;;;5074094;28;20090;-79
2021/12/07 11:31:42;;;;;;;36.25;18.40;;;10.90;99.90;;;;;;5073122;28;20510;-79
2021/12/07 11:34:10;;;;;;;25.05;16.83;;;10.90;99.90;;;;;;5055211;28;20155;-79
2021/12/07 11:39:50;;;;;;;34.78;20.80;;;10.90;99.90;;;;;;5073547;28;20036;-78
2021/12/07 11:42:20;;;;;;;42.83;28.95;;;10.90;99.90;;;;;;5073717;28;20462;-79
2021/12/07 11:44:59;;;;;;;38.20;22.67;;;10.90;99.90;;;;;;5073281;28;20116;-78
2021/12/07 11:47:43;;;;;;;32.10;19.25;;;10.90;99.90;;;;;;5072953;28;20382;-78
2021/12/07 11:50:23;;;;;;;28.92;17.45;;;11.00;99.90;;;;;;5055883;28;20485;-79
2021/12/07 11:53:07;;;;;;;29.63;17.33;;;11.00;99.90;;;;;;5073399;28;20040;-79
2021/12/07 11:55:35;;;;;;;28.02;16.30;;;11.00;99.90;;;;;;5073212;28;20033;-80
2021/12/07 11:58:02;;;;;;;37.13;21.00;;;11.00;99.90;;;;;;5054984;28;20051;-80
2021/12/07 12:00:35;;;;;;;39.42;20.80;;;11.00;99.90;;;;;;5055600;28;20124;-80
2021/12/07 12:03:06;;;;;;;36.75;21.40;;;11.00;99.90;;;;;;5073533;28;20173;-80
2021/12/07 12:05:33;;;;;;;45.60;24.90;;;11.00;99.90;;;;;;5055268;28;20033;-79
2021/12/07 12:07:58;;;;;;;36.22;20.38;;;11.00;99.90;;;;;;5054817;28;20125;-79
2021/12/07 12:10:25;;;;;;;30.50;17.92;;;11.00;99.90;;;;;;5058714;28;20124;-80
2021/12/07 12:13:21;;;;;;;29.45;16.45;;;11.00;99.90;;;;;;5076827;28;20039;-80
2021/12/07 12:16:33;;;;;;;25.55;15.82;;;11.00;99.90;;;;;;5059099;28;20033;-80
2021/12/07 12:19:17;;;;;;;26.88;16.45;;;11.00;99.90;;;;;;5066185;28;20115;-79
2021/12/07 12:21:57;;;;;;;22.35;15.63;;;11.00;99.90;;;;;;5058835;28;20037;-80
2021/12/07 12:24:44;;;;;;;20.13;14.40;;;11.00;99.90;;;;;;5076693;28;20040;-79
2021/12/07 12:27:18;;;;;;;26.23;17.55;;;11.00;99.90;;;;;;5059032;28;20035;-79
2021/12/07 12:29:47;;;;;;;33.78;21.25;;;11.00;99.90;;;;;;5076343;28;20024;-80
2021/12/07 12:32:13;;;;;;;39.80;23.92;;;11.00;99.90;;;;;;5058402;28;20467;-80
2021/12/07 12:34:48;;;;;;;37.28;22.17;;;11.00;99.90;;;;;;5058538;28;20042;-79
2021/12/07 12:37:23;;;;;;;36.63;21.70;;;10.90;99.90;;;;;;5076357;28;20437;-79
2021/12/07 12:40:01;;;;;;;39.38;22.83;;;11.00;99.90;;;;;;5058153;28;20043;-80
2021/12/07 12:42:36;;;;;;;46.30;25.80;;;10.90;99.90;;;;;;5058146;28;20035;-80
2021/12/07 12:45:17;;;;;;;55.47;28.98;;;11.00;99.90;;;;;;5076201;28;20430;-80
2021/12/07 12:47:43;;;;;;;59.10;32.92;;;11.00;99.90;;;;;;5076107;28;20109;-80
2021/12/07 12:50:19;;;;;;;59.83;33.30;;;10.90;99.90;;;;;;5076224;28;20033;-79
2021/12/07 12:52:52;;;;;;;66.10;34.20;;;11.00;99.90;;;;;;5076319;28;20047;-79
2021/12/07 12:55:46;;;;;;;59.20;31.38;;;11.00;99.90;;;;;;5057976;28;20056;-81
2021/12/07 12:58:35;;;;;;;53.20;29.80;;;10.90;99.90;;;;;;5076641;28;20059;-81
2021/12/07 13:01:16;;;;;;;45.65;27.27;;;11.00;99.90;;;;;;5075532;28;20063;-79
2021/12/07 13:03:48;;;;;;;;;;;11.00;99.90;;;;;;5076160;28;20107;-79
2021/12/07 13:06:17;;;;;;;34.22;21.00;;;11.00;99.90;;;;;;5057557;28;19909;-80
2021/12/07 13:08:57;;;;;;;26.95;17.10;;;11.00;99.90;;;;;;5058018;28;20036;-78
2021/12/07 13:11:46;;;;;;;24.02;15.15;;;11.00;99.90;;;;;;5075690;28;20043;-80
2021/12/07 13:14:13;;;;;;;20.48;14.07;;;11.00;99.90;;;;;;5057844;28;20527;-79
2021/12/07 13:17:00;;;;;;;21.63;14.40;;;10.90;99.90;;;;;;5075799;28;20087;-81
2021/12/07 13:19:28;;;;;;;25.45;17.77;;;10.90;99.90;;;;;;5057981;28;20395;-80
2021/12/07 13:21:56;;;;;;;25.08;17.67;;;10.90;99.90;;;;;;5074998;28;20090;-80
2021/12/07 13:24:40;;;;;;;24.33;16.65;;;10.90;99.90;;;;;;5075499;28;20072;-80
2021/12/07 13:27:13;;;;;;;20.50;14.85;;;10.90;99.90;;;;;;5076344;28;20089;-80
2021/12/07 13:29:50;;;;;;;21.98;16.50;;;10.90;99.90;;;;;;5078353;28;20062;-80
2021/12/07 13:32:17;;;;;;;22.33;15.48;;;10.90;99.90;;;;;;5060928;28;20036;-80
2021/12/07 13:34:43;;;;;;;28.95;20.02;;;10.90;99.90;;;;;;5076862;28;20036;-80
2021/12/07 13:37:13;;;;;;;34.13;22.50;;;10.90;99.90;;;;;;5057311;28;20364;-80
2021/12/07 13:39:50;;;;;;;32.40;21.63;;;10.90;99.90;;;;;;5057225;28;20064;-80
2021/12/07 13:42:20;;;;;;;39.00;24.73;;;10.90;99.90;;;;;;5057269;28;20033;-80
2021/12/07 13:45:04;;;;;;;44.67;26.52;;;10.90;99.90;;;;;;5075148;28;20032;-79
2021/12/07 13:47:50;;;;;;;37.92;24.90;;;10.90;99.90;;;;;;5057220;28;20122;-80
2021/12/07 13:50:25;;;;;;;34.33;22.38;;;10.90;99.90;;;;;;5057589;28;20043;-81
2021/12/07 13:52:53;;;;;;;27.80;19.50;;;10.90;99.90;;;;;;5057074;28;20494;-80
2021/12/07 13:55:26;;;;;;;26.25;17.65;;;10.90;99.90;;;;;;5074856;28;20411;-80
2021/12/07 13:57:53;;;;;;;44.33;24.30;;;10.80;99.90;;;;;;5056583;28;20060;-80
2021/12/07 14:00:29;;;;;;;42.35;21.83;;;10.80;99.90;;;;;;5056683;28;20040;-80
2021/12/07 14:03:03;;;;;;;40.33;21.77;;;10.80;99.90;;;;;;5056419;28;20644;-80
2021/12/07 14:05:43;;;;;;;41.95;21.40;;;10.80;99.90;;;;;;5056965;28;20348;-80
2021/12/07 14:08:14;;;;;;;40.90;19.27;;;10.80;99.90;;;;;;5056811;28;20040;-79
2021/12/07 14:10:50;;;;;;;35.30;17.73;;;10.80;99.90;;;;;;5056101;28;20150;-79
2021/12/07 14:13:18;;;;;;;36.38;19.33;;;10.80;99.90;;;;;;5074086;28;20445;-79
2021/12/07 14:15:49;;;;;;;32.80;18.05;;;10.80;99.90;;;;;;5074301;28;20446;-81
2021/12/07 14:18:23;;;;;;;41.50;23.85;;;10.80;99.90;;;;;;5056105;28;20040;-80
2021/12/07 14:20:58;;;;;;;41.95;23.60;;;10.70;99.90;;;;;;5055865;28;20421;-80
2021/12/07 14:23:38;;;;;;;38.25;22.83;;;10.50;99.90;;;;;;5073671;28;20098;-80
2021/12/07 14:26:26;;;;;;;31.10;19.88;;;10.10;99.90;;;;;;5055823;28;20036;-79
2021/12/07 14:29:02;;;;;;;31.25;19.67;;;9.70;99.90;;;;;;5055392;28;20525;-80
2021/12/07 14:31:58;;;;;;;29.42;17.80;;;9.30;99.90;;;;;;5055784;28;20036;-80
2021/12/07 14:34:30;;;;;;;24.33;15.35;;;9.00;99.90;;;;;;5072315;28;20055;-79
2021/12/07 14:37:05;;;;;;;20.63;13.55;;;8.90;99.90;;;;;;5073587;28;20029;-80
2021/12/07 14:39:37;;;;;;;19.58;12.30;;;8.60;99.90;;;;;;5074159;28;20042;-79
2021/12/07 14:42:12;;;;;;;15.70;9.73;;;8.50;99.90;;;;;;5074222;28;20025;-80
2021/12/07 14:44:41;;;;;;;13.43;8.93;;;8.30;99.90;;;;;;5073877;28;20044;-80
2021/12/07 14:47:08;;;;;;;12.20;8.25;;;8.10;99.90;;;;;;5073754;28;20127;-79